createdAt,value
2018-04-22T00:00:15.634Z,30.85
2018-04-22T00:02:43.157Z,31.87
2018-04-22T00:05:10.734Z,50.67
2018-04-22T00:07:38.268Z,41.17
2018-04-22T00:10:05.813Z,36.73
2018-04-22T00:12:33.390Z,37.00
2018-04-22T00:15:01.392Z,30.47
2018-04-22T00:17:28.910Z,33.97
2018-04-22T00:19:56.446Z,28.62
2018-04-22T00:22:24.121Z,37.33
2018-04-22T00:24:51.673Z,27.60
2018-04-22T00:27:19.476Z,29.90
2018-04-22T00:29:47.002Z,33.60
2018-04-22T00:32:26.615Z,33.75
2018-04-22T00:38:07.995Z,30.80
2018-04-22T00:40:35.519Z,33.60
2018-04-22T00:43:03.055Z,33.00
2018-04-22T00:45:30.647Z,30.93
2018-04-22T00:47:58.162Z,32.80
2018-04-22T00:50:25.692Z,28.77
2018-04-22T00:52:53.274Z,33.13
2018-04-22T00:55:21.574Z,27.87
2018-04-22T00:57:49.115Z,28.60
2018-04-22T01:00:16.655Z,30.98
2018-04-22T01:02:44.961Z,25.93
2018-04-22T01:05:12.486Z,26.83
2018-04-22T01:07:40.395Z,27.17
2018-04-22T01:10:07.937Z,25.77
2018-04-22T01:12:35.465Z,30.00
2018-04-22T01:15:03.707Z,31.63
2018-04-22T01:17:31.223Z,29.85
2018-04-22T01:19:58.777Z,29.43
2018-04-22T01:22:27.083Z,29.73
2018-04-22T01:24:54.606Z,29.93
2018-04-22T01:27:22.891Z,29.15
2018-04-22T01:29:52.426Z,27.83
2018-04-22T01:32:19.946Z,28.87
2018-04-22T01:34:48.243Z,25.30
2018-04-22T01:37:16.437Z,29.20
2018-04-22T01:39:43.953Z,29.40
2018-04-22T01:42:12.245Z,28.80
2018-04-22T01:44:39.802Z,27.67
2018-04-22T01:47:08.085Z,27.27
2018-04-22T01:49:35.637Z,25.80
2018-04-22T01:52:03.477Z,26.03
2018-04-22T01:54:30.993Z,33.53
2018-04-22T01:56:58.518Z,27.42
2018-04-22T01:59:27.029Z,29.03
2018-04-22T02:01:54.542Z,25.77
2018-04-22T02:04:22.061Z,30.57
2018-04-22T02:06:49.598Z,32.10
2018-04-22T02:09:17.110Z,27.63
2018-04-22T02:11:44.638Z,37.73
2018-04-22T02:14:12.519Z,26.67
2018-04-22T02:16:40.513Z,27.73
2018-04-22T02:19:08.046Z,31.83
2018-04-22T02:21:35.598Z,27.90
2018-04-22T02:24:03.146Z,33.73
2018-04-22T02:26:30.667Z,28.60
2018-04-22T02:28:58.260Z,30.07
2018-04-22T02:31:25.778Z,29.13
2018-04-22T02:33:53.303Z,27.53
2018-04-22T02:36:20.878Z,34.13
2018-04-22T02:38:49.168Z,30.58
2018-04-22T02:41:17.464Z,25.70
2018-04-22T02:43:45.115Z,28.37
2018-04-22T02:46:14.324Z,35.33
2018-04-22T02:48:41.851Z,27.73
2018-04-22T02:51:10.166Z,31.43
2018-04-22T02:53:37.688Z,26.90
2018-04-22T02:56:05.208Z,36.43
2018-04-22T02:58:33.264Z,27.00
2018-04-22T03:01:00.789Z,26.80
2018-04-22T03:03:28.314Z,31.70
2018-04-22T03:05:55.866Z,32.00
2018-04-22T03:08:23.387Z,30.40
2018-04-22T03:10:50.899Z,24.93
2018-04-22T03:13:18.458Z,28.17
2018-04-22T03:15:45.975Z,26.37
2018-04-22T03:18:15.933Z,27.45
2018-04-22T03:20:44.275Z,27.67
2018-04-22T03:23:11.790Z,27.10
2018-04-22T03:25:39.314Z,25.63
2018-04-22T03:28:06.871Z,25.70
2018-04-22T03:30:34.390Z,28.40
2018-04-22T03:33:01.914Z,25.43
2018-04-22T03:35:30.221Z,27.05
2018-04-22T03:37:57.728Z,30.07
2018-04-22T03:40:25.290Z,27.85
2018-04-22T03:42:52.858Z,24.83
2018-04-22T03:45:20.392Z,26.65
2018-04-22T03:47:47.927Z,25.30
2018-04-22T03:50:16.281Z,26.30
2018-04-22T03:52:43.810Z,25.70
2018-04-22T03:55:11.339Z,23.80
2018-04-22T03:57:38.886Z,26.07
2018-04-22T04:00:06.460Z,30.90
2018-04-22T04:02:33.982Z,26.00
2018-04-22T04:05:01.807Z,24.93
2018-04-22T04:07:30.095Z,29.65
2018-04-22T04:09:58.399Z,23.70
2018-04-22T04:12:25.957Z,28.33
2018-04-22T04:14:53.483Z,29.33
2018-04-22T04:17:21.027Z,29.48
2018-04-22T04:20:01.157Z,24.13
2018-04-22T04:22:40.492Z,22.13
2018-04-22T04:25:38.532Z,26.60
2018-04-22T04:28:06.055Z,23.80
2018-04-22T04:30:34.365Z,21.87
2018-04-22T04:33:01.919Z,24.30
2018-04-22T04:35:29.589Z,24.60
2018-04-22T04:37:57.138Z,23.93
2018-04-22T04:40:24.791Z,30.00
2018-04-22T04:42:52.362Z,30.63
2018-04-22T04:45:19.885Z,30.83
2018-04-22T04:47:48.150Z,23.90
2018-04-22T04:50:16.540Z,26.73
2018-04-22T04:52:44.835Z,33.20
2018-04-22T04:55:14.070Z,24.03
2018-04-22T04:57:41.588Z,24.23
2018-04-22T05:00:10.089Z,25.23
2018-04-22T05:02:38.433Z,23.23
2018-04-22T05:05:05.948Z,21.47
2018-04-22T05:07:33.535Z,21.87
2018-04-22T05:10:01.204Z,26.40
2018-04-22T05:12:28.749Z,24.10
2018-04-22T05:14:57.059Z,22.17
2018-04-22T05:17:24.630Z,21.25
2018-04-22T05:19:53.746Z,22.60
2018-04-22T05:22:21.338Z,22.10
2018-04-22T05:24:48.954Z,31.27
2018-04-22T05:27:16.504Z,20.83
2018-04-22T05:29:44.031Z,20.50
2018-04-22T05:32:11.623Z,20.17
2018-04-22T05:34:39.150Z,22.53
2018-04-22T05:37:06.679Z,19.83
2018-04-22T05:39:34.318Z,22.07
2018-04-22T05:44:35.829Z,29.33
2018-04-22T05:47:03.405Z,29.30
2018-04-22T05:49:30.926Z,22.15
2018-04-22T05:51:59.272Z,20.75
2018-04-22T05:54:26.877Z,19.97
2018-04-22T05:56:54.476Z,23.57
2018-04-22T05:59:22.038Z,22.10
2018-04-22T06:01:49.575Z,23.77
2018-04-22T06:04:17.099Z,20.97
2018-04-22T06:06:44.675Z,22.40
2018-04-22T06:09:12.215Z,30.27
2018-04-22T06:11:39.759Z,20.33
2018-04-22T06:14:07.847Z,20.43
2018-04-22T06:16:35.536Z,25.88
2018-04-22T06:19:03.944Z,24.30
2018-04-22T06:21:32.190Z,28.17
2018-04-22T06:23:59.748Z,21.50
2018-04-22T06:26:27.278Z,24.23
2018-04-22T06:28:54.835Z,25.33
2018-04-22T06:31:22.390Z,19.07
2018-04-22T06:33:49.920Z,18.30
2018-04-22T06:36:17.498Z,16.93
2018-04-22T06:38:45.054Z,16.37
2018-04-22T06:41:13.529Z,14.37
2018-04-22T06:43:41.125Z,15.10
2018-04-22T06:46:08.657Z,14.30
2018-04-22T06:48:36.198Z,15.87
2018-04-22T06:51:03.793Z,17.43
2018-04-22T06:53:31.348Z,14.20
2018-04-22T06:55:58.864Z,13.83
2018-04-22T06:58:27.650Z,14.33
2018-04-22T07:00:55.211Z,13.20
2018-04-22T07:03:22.858Z,13.47
2018-04-22T07:05:50.724Z,14.10
2018-04-22T07:08:19.011Z,12.87
2018-04-22T07:10:46.538Z,12.80
2018-04-22T07:13:26.554Z,17.42
2018-04-22T07:16:10.156Z,18.73
2018-04-22T07:18:38.515Z,11.93
2018-04-22T07:21:06.045Z,14.23
2018-04-22T07:23:35.115Z,13.55
2018-04-22T07:26:02.671Z,11.50
2018-04-22T07:28:30.958Z,11.63
2018-04-22T07:30:58.507Z,18.37
2018-04-22T07:33:26.071Z,11.30
2018-04-22T07:35:53.601Z,14.00
2018-04-22T07:38:21.643Z,11.80
2018-04-22T07:40:49.714Z,12.30
2018-04-22T07:43:17.295Z,12.00
2018-04-22T07:45:45.597Z,11.80
2018-04-22T07:48:24.486Z,11.55
2018-04-22T07:53:23.714Z,11.43
2018-04-22T07:55:51.722Z,13.10
2018-04-22T07:58:19.277Z,12.00
2018-04-22T08:00:46.800Z,12.67
2018-04-22T08:03:16.318Z,9.87
2018-04-22T08:05:43.842Z,12.80
2018-04-22T08:08:11.366Z,9.50
2018-04-22T08:10:38.914Z,14.30
2018-04-22T08:13:06.447Z,9.23
2018-04-22T08:15:33.992Z,10.67
2018-04-22T08:18:02.620Z,12.90
2018-04-22T08:20:30.139Z,9.73
2018-04-22T08:22:57.676Z,10.67
2018-04-22T08:25:25.791Z,9.82
2018-04-22T08:27:54.558Z,13.43
2018-04-22T08:30:22.150Z,12.33
2018-04-22T08:32:50.470Z,8.00
2018-04-22T08:35:17.987Z,8.57
2018-04-22T08:37:45.490Z,6.62
2018-04-22T08:40:24.600Z,9.43
2018-04-22T08:45:35.020Z,8.43
2018-04-22T08:48:02.533Z,7.50
2018-04-22T08:50:30.048Z,7.70
2018-04-22T08:52:57.604Z,11.43
2018-04-22T08:55:25.130Z,8.93
2018-04-22T08:57:52.654Z,9.03
2018-04-22T09:00:20.606Z,8.20
2018-04-22T09:02:48.122Z,8.67
2018-04-22T09:05:16.435Z,8.93
2018-04-22T09:07:44.015Z,17.47
2018-04-22T09:10:11.530Z,9.30
2018-04-22T09:12:39.041Z,9.03
2018-04-22T09:15:06.593Z,11.13
2018-04-22T09:17:34.110Z,16.33
2018-04-22T09:20:01.640Z,9.20
2018-04-22T09:22:29.659Z,9.30
2018-04-22T09:24:57.163Z,8.80
2018-04-22T09:27:25.944Z,13.25
2018-04-22T09:29:53.499Z,10.68
2018-04-22T09:32:21.029Z,10.52
2018-04-22T09:34:48.542Z,10.07
2018-04-22T09:37:16.691Z,10.77
2018-04-22T09:39:44.197Z,10.00
2018-04-22T09:42:11.713Z,12.87
2018-04-22T09:44:39.278Z,9.63
2018-04-22T09:47:07.549Z,8.33
2018-04-22T09:49:35.066Z,8.17
2018-04-22T09:52:02.615Z,8.93
2018-04-22T09:54:30.133Z,11.70
2018-04-22T09:56:58.411Z,13.63
2018-04-22T09:59:25.957Z,10.93
2018-04-22T10:01:54.242Z,11.43
2018-04-22T10:04:33.334Z,10.43
2018-04-22T10:07:00.856Z,11.50
2018-04-22T10:09:28.406Z,11.15
2018-04-22T10:11:55.934Z,13.33
2018-04-22T10:14:23.462Z,11.33
2018-04-22T10:19:25.719Z,14.25
2018-04-22T10:21:53.278Z,13.70
2018-04-22T10:24:20.814Z,14.70
2018-04-22T10:26:48.391Z,15.00
2018-04-22T10:29:17.722Z,16.37
2018-04-22T10:31:45.247Z,16.40
2018-04-22T10:34:23.779Z,16.17
2018-04-22T10:41:31.508Z,19.70
2018-04-22T10:43:59.045Z,18.07
2018-04-22T10:46:26.580Z,16.80
2018-04-22T10:48:55.631Z,20.50
2018-04-22T10:51:23.151Z,16.97
2018-04-22T10:53:51.430Z,18.57
2018-04-22T10:56:19.004Z,18.53
2018-04-22T10:58:46.532Z,20.08
2018-04-22T11:01:16.474Z,16.48
2018-04-22T11:03:44.304Z,17.03
2018-04-22T11:06:12.590Z,19.30
2018-04-22T11:08:40.115Z,20.80
2018-04-22T11:11:08.033Z,21.40
2018-04-22T11:13:35.562Z,16.67
2018-04-22T11:16:03.088Z,18.70
2018-04-22T11:18:30.646Z,19.23
2018-04-22T11:20:58.259Z,18.03
2018-04-22T11:23:25.859Z,19.98
2018-04-22T11:25:53.418Z,17.60
2018-04-22T11:28:20.983Z,19.17
2018-04-22T11:30:48.883Z,16.15
2018-04-22T11:33:16.813Z,19.15
2018-04-22T11:35:45.127Z,15.40
2018-04-22T11:38:13.599Z,15.07
2018-04-22T11:40:41.155Z,16.23
2018-04-22T11:43:08.705Z,36.03
2018-04-22T11:45:36.249Z,17.00
2018-04-22T11:48:03.807Z,14.13
2018-04-22T11:50:31.339Z,15.43
2018-04-22T11:52:58.883Z,13.93
2018-04-22T11:55:26.779Z,12.00
2018-04-22T11:57:54.318Z,12.27
2018-04-22T12:00:21.862Z,13.47
2018-04-22T12:02:49.426Z,11.32
2018-04-22T12:05:16.970Z,10.93
2018-04-22T12:07:45.184Z,19.20
2018-04-22T12:10:12.722Z,9.07
2018-04-22T12:12:40.235Z,11.50
2018-04-22T12:15:07.762Z,17.67
2018-04-22T12:17:36.348Z,12.17
2018-04-22T12:20:03.875Z,19.50
2018-04-22T12:22:31.405Z,12.07
2018-04-22T12:24:58.963Z,11.30
2018-04-22T12:27:26.495Z,10.17
2018-04-22T12:29:54.329Z,16.10
2018-04-22T12:35:08.463Z,13.03
2018-04-22T12:37:36.042Z,8.90
2018-04-22T12:40:04.323Z,7.63
2018-04-22T12:42:31.841Z,17.73
2018-04-22T12:44:59.391Z,10.70
2018-04-22T12:47:26.912Z,8.77
2018-04-22T12:49:54.433Z,8.20
2018-04-22T12:52:21.991Z,8.20
2018-04-22T12:54:50.309Z,7.30
2018-04-22T12:57:17.832Z,22.03
2018-04-22T12:59:45.405Z,8.80
2018-04-22T13:02:24.405Z,7.00
2018-04-22T13:05:29.115Z,7.37
2018-04-22T13:07:56.978Z,11.00
2018-04-22T13:10:25.275Z,9.98
2018-04-22T13:12:52.830Z,7.93
2018-04-22T13:15:20.376Z,8.95
2018-04-22T13:17:47.911Z,7.23
2018-04-22T13:20:16.712Z,9.00
2018-04-22T13:22:44.234Z,13.03
2018-04-22T13:25:11.769Z,7.97
2018-04-22T13:27:39.323Z,13.27
2018-04-22T13:30:07.608Z,10.30
2018-04-22T13:32:35.764Z,5.97
2018-04-22T13:35:03.646Z,8.70
2018-04-22T13:37:31.179Z,5.90
2018-04-22T13:39:58.712Z,9.03
2018-04-22T13:42:26.662Z,7.97
2018-04-22T13:44:54.182Z,9.73
2018-04-22T13:47:22.459Z,6.03
2018-04-22T13:49:50.778Z,6.30
2018-04-22T13:52:18.327Z,6.53
2018-04-22T13:54:45.844Z,5.70
2018-04-22T13:57:13.748Z,9.63
2018-04-22T14:05:31.376Z,10.30
2018-04-22T14:09:10.829Z,8.20
2018-04-22T14:11:38.387Z,11.57
2018-04-22T14:14:06.733Z,8.83
2018-04-22T14:16:34.583Z,6.40
2018-04-22T14:19:02.220Z,14.33
2018-04-22T14:21:29.903Z,13.65
2018-04-22T14:23:57.436Z,7.80
2018-04-22T14:26:25.274Z,14.35
2018-04-22T14:28:52.796Z,9.93
2018-04-22T14:31:20.320Z,16.10
2018-04-22T14:33:48.320Z,9.37
2018-04-22T14:36:17.293Z,8.83
2018-04-22T14:38:44.820Z,8.40
2018-04-22T14:41:12.369Z,6.90
2018-04-22T14:43:39.892Z,6.77
2018-04-22T14:46:13.563Z,9.17
2018-04-22T14:48:52.895Z,6.10
2018-04-22T14:51:20.484Z,7.90
2018-04-22T14:53:48.001Z,7.67
2018-04-22T14:56:16.447Z,6.68
2018-04-22T14:58:44.021Z,14.70
2018-04-22T15:01:12.378Z,9.77
2018-04-22T15:03:39.909Z,5.37
2018-04-22T15:06:07.559Z,4.87
2018-04-22T15:08:35.127Z,7.90
2018-04-22T15:11:02.675Z,6.78
2018-04-22T15:13:30.362Z,9.30
2018-04-22T15:15:57.870Z,29.63
2018-04-22T15:18:25.401Z,10.83
2018-04-22T15:20:52.988Z,8.90
2018-04-22T15:23:20.506Z,5.80
2018-04-22T15:25:48.043Z,4.87
2018-04-22T15:28:16.949Z,6.83
2018-04-22T15:30:45.222Z,5.83
2018-04-22T15:33:13.688Z,5.63
2018-04-22T15:35:41.747Z,12.30
2018-04-22T15:38:09.307Z,7.43
2018-04-22T15:40:36.809Z,7.30
2018-04-22T15:43:04.385Z,8.50
2018-04-22T15:45:32.684Z,6.20
2018-04-22T15:48:00.205Z,7.40
2018-04-22T15:50:27.881Z,5.63
2018-04-22T15:52:55.401Z,5.03
2018-04-22T15:55:22.924Z,5.00
2018-04-22T15:57:50.486Z,5.72
2018-04-22T16:00:18.009Z,8.00
2018-04-22T16:02:45.546Z,8.68
2018-04-22T16:05:16.568Z,13.82
2018-04-22T16:07:44.111Z,15.30
2018-04-22T16:10:11.620Z,6.03
2018-04-22T16:12:39.586Z,6.83
2018-04-22T16:15:07.099Z,11.10
2018-04-22T16:17:34.615Z,6.77
2018-04-22T16:20:02.177Z,6.00
2018-04-22T16:22:29.702Z,10.97
2018-04-22T16:24:57.378Z,5.40
2018-04-22T16:27:26.328Z,6.80
2018-04-22T16:29:53.942Z,9.53
2018-04-22T16:32:21.491Z,6.45
2018-04-22T16:34:49.521Z,6.20
2018-04-22T16:37:17.342Z,5.87
2018-04-22T16:39:46.364Z,5.87
2018-04-22T16:42:16.369Z,6.37
2018-04-22T16:44:43.903Z,7.53
2018-04-22T16:47:11.437Z,13.33
2018-04-22T16:49:39.021Z,6.73
2018-04-22T16:52:06.623Z,10.05
2018-04-22T16:54:34.151Z,9.93
2018-04-22T16:57:03.305Z,7.83
2018-04-22T16:59:30.827Z,15.90
2018-04-22T17:01:58.362Z,7.23
2018-04-22T17:04:25.940Z,7.47
2018-04-22T17:06:53.588Z,8.18
2018-04-22T17:09:21.888Z,13.17
2018-04-22T17:11:49.514Z,14.20
2018-04-22T17:14:17.841Z,8.90
2018-04-22T17:16:53.774Z,7.70
2018-04-22T17:19:21.311Z,9.93
2018-04-22T17:21:49.607Z,8.83
2018-04-22T17:43:50.151Z,9.47
2018-04-22T17:46:18.373Z,6.43
2018-04-22T17:48:46.704Z,9.20
2018-04-22T17:51:15.515Z,9.00
2018-04-22T17:53:43.271Z,6.60
2018-04-22T17:56:10.796Z,6.93
2018-04-22T17:58:38.412Z,7.43
2018-04-22T18:01:06.864Z,6.93
2018-04-22T18:03:34.394Z,8.47
2018-04-22T18:06:01.983Z,7.97
2018-04-22T18:08:29.662Z,10.10
2018-04-22T18:10:57.339Z,13.37
2018-04-22T18:13:24.885Z,10.50
2018-04-22T18:15:53.457Z,10.23
2018-04-22T18:18:20.989Z,13.77
2018-04-22T18:20:48.586Z,12.45
2018-04-22T18:23:16.418Z,13.70
2018-04-22T18:25:43.978Z,16.30
2018-04-22T18:28:12.007Z,17.13
2018-04-22T18:30:39.583Z,20.70
2018-04-22T18:33:07.165Z,13.07
2018-04-22T18:35:34.712Z,17.70
2018-04-22T18:38:03.204Z,12.63
2018-04-22T18:40:30.753Z,18.08
2018-04-22T18:42:58.311Z,11.00
2018-04-22T18:45:26.089Z,17.77
2018-04-22T18:47:53.602Z,18.70
2018-04-22T18:50:21.177Z,41.53
2018-04-22T18:52:49.475Z,19.73
2018-04-22T18:55:17.095Z,23.07
2018-04-22T18:57:44.755Z,23.77
2018-04-22T19:00:12.281Z,23.27
2018-04-22T19:02:39.807Z,23.93
2018-04-22T19:05:07.383Z,25.33
2018-04-22T19:07:34.991Z,37.90
2018-04-22T19:10:03.301Z,25.07
2018-04-22T19:12:31.048Z,20.43
2018-04-22T19:14:59.345Z,25.95
2018-04-22T19:17:26.919Z,18.83
2018-04-22T19:19:54.512Z,22.40
2018-04-22T19:22:22.128Z,21.33
2018-04-22T19:24:49.647Z,22.80
2018-04-22T19:27:17.251Z,23.60
2018-04-22T19:29:44.775Z,27.70
2018-04-22T19:32:14.004Z,20.90
2018-04-22T19:34:41.865Z,20.10
2018-04-22T19:37:10.232Z,20.05
2018-04-22T19:39:37.762Z,21.13
2018-04-22T19:42:05.315Z,17.90
2018-04-22T19:44:32.836Z,20.92
2018-04-22T19:47:01.499Z,35.93
2018-04-22T19:49:29.103Z,34.53
2018-04-22T19:51:56.661Z,31.43
2018-04-22T19:54:24.399Z,21.30
2018-04-22T19:56:53.010Z,18.03
2018-04-22T19:59:21.413Z,17.50
2018-04-22T20:01:48.984Z,20.87
2018-04-22T20:04:17.856Z,16.60
2018-04-22T20:06:46.256Z,24.97
2018-04-22T20:09:24.729Z,19.12
2018-04-22T20:15:09.586Z,22.10
2018-04-22T20:17:37.280Z,17.50
2018-04-22T20:20:05.019Z,14.87
2018-04-22T20:22:32.600Z,21.73
2018-04-22T20:25:00.222Z,26.70
2018-04-22T20:27:27.723Z,25.43
2018-04-22T20:29:55.564Z,15.07
2018-04-22T20:32:23.142Z,24.10
2018-04-22T20:34:50.687Z,16.30
2018-04-22T20:37:18.289Z,22.37
2018-04-22T20:39:45.819Z,15.80
2018-04-22T20:42:25.690Z,17.27
2018-04-22T20:47:33.661Z,18.63
2018-04-22T20:50:01.200Z,17.70
2018-04-22T20:52:28.775Z,23.38
2018-04-22T20:54:56.755Z,19.90
2018-04-22T20:57:24.285Z,25.67
2018-04-22T20:59:51.868Z,17.23
2018-04-22T21:02:19.421Z,19.90
2018-04-22T21:04:46.960Z,16.37
2018-04-22T21:07:26.192Z,15.80
2018-04-22T21:12:45.824Z,18.90
2018-04-22T21:15:15.418Z,22.80
2018-04-22T21:17:42.930Z,29.63
2018-04-22T21:20:10.670Z,25.30
2018-04-22T21:22:39.005Z,16.77
2018-04-22T21:25:06.537Z,20.63
2018-04-22T21:27:34.088Z,23.33
2018-04-22T21:30:02.384Z,19.47
2018-04-22T21:32:29.914Z,21.37
2018-04-22T21:34:57.834Z,17.80
2018-04-22T21:37:25.542Z,22.90
2018-04-22T21:39:53.861Z,19.70
2018-04-22T21:42:21.505Z,20.00
2018-04-22T21:44:49.136Z,20.20
2018-04-22T21:47:17.443Z,18.03
2018-04-22T21:49:46.282Z,20.23
2018-04-22T21:52:26.122Z,21.37
2018-04-22T21:58:15.411Z,18.90
2018-04-22T22:00:42.925Z,25.23
2018-04-22T22:03:11.209Z,25.35
2018-04-22T22:05:39.526Z,22.60
2018-04-22T22:08:07.067Z,19.40
2018-04-22T22:10:34.592Z,16.48
2018-04-22T22:13:02.930Z,16.47
2018-04-22T22:15:30.461Z,19.65
2018-04-22T22:17:57.983Z,20.90
2018-04-22T22:20:26.976Z,18.83
2018-04-22T22:22:55.309Z,29.13
2018-04-22T22:25:22.860Z,21.60
2018-04-22T22:27:50.407Z,17.57
2018-04-22T22:30:17.944Z,18.07
2018-04-22T22:32:45.472Z,17.48
2018-04-22T22:35:15.461Z,15.93
2018-04-22T22:37:43.010Z,17.27
2018-04-22T22:40:10.549Z,16.57
2018-04-22T22:42:38.578Z,16.83
2018-04-22T22:45:06.115Z,16.80
2018-04-22T22:47:33.635Z,17.40
2018-04-22T22:50:02.431Z,15.50
2018-04-22T22:52:29.973Z,15.07
2018-04-22T22:54:57.498Z,16.10
2018-04-22T22:57:25.052Z,14.60
2018-04-22T22:59:52.570Z,17.80
2018-04-22T23:02:20.086Z,15.68
2018-04-22T23:04:48.424Z,17.20
2018-04-22T23:07:16.465Z,18.73
2018-04-22T23:09:43.998Z,24.23
2018-04-22T23:12:12.319Z,14.43
2018-04-22T23:14:39.881Z,20.73
2018-04-22T23:17:07.413Z,17.45
2018-04-22T23:19:34.991Z,14.97
2018-04-22T23:22:02.524Z,15.95
2018-04-22T23:24:30.058Z,14.87
2018-04-22T23:26:58.807Z,20.93
2018-04-22T23:29:26.333Z,18.13
2018-04-22T23:31:53.875Z,14.57
2018-04-22T23:34:21.412Z,15.33
2018-04-22T23:36:48.998Z,14.63
2018-04-22T23:39:16.526Z,17.13
2018-04-22T23:41:44.082Z,16.17
2018-04-22T23:44:11.625Z,14.60
2018-04-22T23:46:39.152Z,14.13
2018-04-22T23:49:07.336Z,17.70
2018-04-22T23:51:35.181Z,16.60
2018-04-22T23:54:02.715Z,16.00
2018-04-22T23:56:31.023Z,17.10
2018-04-22T23:58:58.551Z,14.00
